Strona główna
METAR-TAF:

METAR-TAF

Lotnisko :

Port lotniczy Brač

Brač, Chorwacja

Szerokość geograficzna: 43-17-09N, Długość geograficzna: 016-40-47E, wysokość: 541 m

METAR: brakujący

czas: 07:50 (05:50 UTC)

Prognoza

Raport powstał 18 godziny i 25 minut temu, godzina 11:25 UTC
Prognoza ważna od 07 godzina 12 UTC do 08 godzina 12 UTC
Wiatr 7 kt od południowy zachód
Widzialność 10 km lub więcej
Brak chmur poniżej 1500 m i brak chmur cumulonimbus
Stopniowe zmiany
od 07 godzina 20 UTC do 07 godzina 22 UTC
Wiatr 7 kt od północno-północny wschód

TAF: LDSB 071125Z 0712/0812 22007KT CAVOK TX19/0713Z TN08/0804Z BECMG 0720/0722 03007KT

Obserwacja i prognoza pogody dla ponad 4000 lotnisk (raport METAR i TAF).

Dostępne stacje oznaczono żółtymi i czerwonymi punktami na mapie.

Najedź kursorem aby zobaczyć nazwę stacji.

Kliknij aby zobaczyć obserwacje i prognozy pogody.

Aby zmienić mapę: kliknij na zielony przycisk z czarnym krzyżykiem, aby powiększyć; na zielony przycisk z myślnikiem, aby pomniejszyć; na zielone strzałki, aby przejść do map sąsiednich.


METAR-TAF: